Troy, Alabama
Current Conditions -  °F | °C
As of 4:53 PM on Thursday 20 Nov 2014 (Local Time) from KTOI Reporting Station
Few Clouds Few Clouds  
Wind Chill: 14°   Ceiling: Unl
Heat Index: 14°   Visibility: 10mi
Dew Point:   Wind: 3mph
Humidity: 62%   Direction: 340°NNW
Pressure: 30.23"   Gusts: NA
Location:  31.81°N, 85.97°W
Report Text: KTOI 202253Z AUTO 34003KT 10SM FEW050 14/07 A3023 RMK AO2 SLP236 T01390067
Loading
Personal Weather Stations






























Interactive Weather Map New forecast layout! Learn more

10-Day Weather Forecast

Advertisements
Track Severe Weather on mobile